Latest Weather Observations for Richmond

IDN60901

Issued at 11:11 am EST Thursday 25 May 2017 (issued every 10 minutes, with the page automatically refreshed every 10 minutes)

About weather observations | Map of Sydney area stations | Latest observations for Sydney area | Other Formats
Station Details ID: 067105 Name: RICHMOND RAAF Lat: -33.60 Lon: 150.78 Height: 19.0 m
Data from the previous 72 hours. | See also: Recent months at Richmond
Date/Time
EST
Temp
°C
App
Temp
°C
Dew
Point
°C
Rel
Hum
%
Delta-T
°C
Wind Press
QNH
hPa
Press
MSL
hPa
Rain since
9am
mm
Dir  Spd
km/h
Gust
km/h
Spd
kts
Gust
kts
25/11:00am 15.9 14.2 7.7 58 4.1 NNE 6 11 3 6 1021.3 1021.3 0.0
25/10:30am 15.5 14.6 7.8 60 3.9 NE 2 7 1 4 1021.7 1021.7 0.0
25/10:00am 14.5 13.5 8.7 68 2.9 NNE 4 7 2 4 1021.8 1021.8 0.0
25/09:30am 13.1 12.4 8.4 73 2.3 NE 2 7 1 4 1021.8 1021.8 0.0
25/09:00am 12.2 11.9 8.7 79 1.7 CALM 0 0 0 0 1021.8 1021.8 0.2
25/08:30am 10.0 9.7 8.8 92 0.6 CALM 0 0 0 0 1022.0 1022.0 0.2
25/08:00am 7.7 6.0 7.4 98 0.1 N 6 7 3 4 1021.7 1021.7 0.2
25/07:30am 5.9 4.9 5.6 98 0.1 CALM 0 0 0 0 1021.3 1021.3 0.2
25/07:00am 5.4 4.3 5.1 98 0.1 CALM 0 0 0 0 1020.9 1020.9 0.2
25/06:30am 5.2 4.1 4.9 98 0.1 CALM 0 0 0 0 1020.7 1020.7 0.2
25/06:00am 5.3 4.2 5.0 98 0.1 CALM 0 0 0 0 1020.3 1020.3 0.2
25/05:58am 5.3 4.2 5.0 98 0.1 CALM 0 0 0 0 1020.2 1020.2 0.2
25/05:30am 5.8 4.8 5.5 98 0.1 CALM 0 0 0 0 1019.9 1019.9 0.2
25/05:00am 5.6 4.5 5.3 98 0.1 CALM 0 0 0 0 1019.7 1019.7 0.2
25/04:57am 5.3 4.2 5.0 98 0.1 CALM 0 0 0 0 1019.7 1019.7 0.2
25/04:30am 5.9 4.9 5.6 98 0.1 CALM 0 0 0 0 1019.6 1019.6 0.2
25/04:00am 5.7 4.7 5.4 98 0.1 CALM 0 0 0 0 1019.4 1019.4 0.2
25/03:30am 5.8 4.8 5.5 98 0.1 CALM 0 0 0 0 1019.2 1019.2 0.2
25/03:00am 6.0 5.0 5.7 98 0.1 CALM 0 0 0 0 1019.0 1019.0 0.2
25/02:30am 6.9 6.1 6.6 98 0.1 CALM 0 0 0 0 1018.8 1018.8 0.2
25/02:00am 6.9 6.0 6.0 94 0.4 CALM 0 0 0 0 1018.9 1018.9 0.2
25/01:30am 6.9 5.9 5.7 92 0.5 CALM 0 4 0 2 1019.0 1019.0 0.2
25/01:00am 7.8 5.8 6.1 89 0.8 SE 6 9 3 5 1019.0 1019.0 0.2
25/12:30am 9.1 8.0 6.9 86 1.0 SE 2 7 1 4 1019.0 1019.0 0.2
25/12:00am 10.1 8.3 7.2 82 1.4 NNE 6 11 3 6 1018.9 1018.9 0.2
 
Date/Time
EST
Temp
°C
App
Temp
°C
Dew
Point
°C
Rel
Hum
%
Delta-T
°C
Wind Press
QNH
hPa
Press
MSL
hPa
Rain since
9am
mm
Dir  Spd
km/h
Gust
km/h
Spd
kts
Gust
kts
24/11:30pm 9.2 8.0 6.6 84 1.2 SSW 2 6 1 3 1019.0 1019.0 0.2
24/11:00pm 10.1 8.5 6.3 77 1.8 NW 4 11 2 6 1018.8 1018.8 0.2
24/10:30pm 10.3 8.6 7.4 82 1.4 NNE 6 7 3 4 1018.7 1018.7 0.2
24/10:00pm 10.3 8.5 7.2 81 1.5 NNE 6 9 3 5 1018.6 1018.6 0.2
24/09:30pm 10.9 9.4 6.8 76 1.9 N 4 6 2 3 1018.7 1018.7 0.2
24/09:00pm 11.3 8.3 6.2 71 2.4 WNW 11 13 6 7 1018.4 1018.4 0.2
24/08:30pm 12.8 9.6 6.8 67 2.9 WNW 13 13 7 7 1018.2 1018.2 0.2
24/08:00pm 11.0 8.1 6.7 75 2.0 W 11 13 6 7 1017.9 1017.9 0.2
24/07:30pm 12.1 9.6 6.4 68 2.7 SW 9 11 5 6 1017.7 1017.7 0.2
24/07:00pm 13.6 10.3 6.2 61 3.5 W 13 15 7 8 1017.3 1017.3 0.2
24/06:30pm 14.9 11.9 6.0 55 4.3 W 11 52 6 28 1016.8 1016.8 0.2
24/06:00pm 15.8 12.0 5.7 51 4.8 W 15 19 8 10 1016.2 1016.2 0.2
24/05:30pm 17.7 12.8 5.3 44 6.0 W 20 26 11 14 1015.8 1015.8 0.2
24/05:00pm 18.2 12.9 5.1 42 6.3 W 22 32 12 17 1015.3 1015.3 0.0
24/04:30pm 19.7 12.7 4.2 36 7.4 W 30 43 16 23 1014.7 1014.7 0.0
24/04:00pm 20.9 14.7 4.5 34 8.0 W 26 32 14 17 1014.2 1014.2 0.0
24/03:30pm 21.6 16.4 5.5 35 8.0 WSW 22 33 12 18 1013.7 1013.7 0.0
24/03:00pm 22.0 15.9 5.0 33 8.4 W 26 37 14 20 1013.3 1013.3 0.0
24/02:30pm 22.4 16.4 5.4 33 8.5 WSW 26 37 14 20 1012.9 1012.9 0.0
24/02:00pm 22.8 17.6 5.7 33 8.6 WSW 22 30 12 16 1012.9 1012.9 0.0
24/01:30pm 22.8 17.2 5.3 32 8.8 WSW 24 39 13 21 1012.9 1012.9 0.0
24/01:00pm 22.9 17.6 6.6 35 8.4 WSW 24 32 13 17 1012.9 1012.9 0.0
24/12:30pm 23.3 18.2 7.8 37 8.1 WSW 24 33 13 18 1013.0 1013.0 0.0
24/12:00pm 22.5 19.3 11.3 49 6.2 SW 19 28 10 15 1013.5 1013.5 0.0
24/11:30am 21.3 18.3 10.5 50 5.9 SW 17 24 9 13 1013.8 1013.8 0.0
24/11:00am 22.6 19.5 11.7 50 6.1 NW 19 24 10 13 1013.9 1013.9 0.0
24/10:30am 21.8 20.0 14.4 63 4.3 NNW 17 20 9 11 1014.2 1014.2 0.0
24/10:00am 19.6 17.6 14.0 70 3.2 NNW 17 28 9 15 1014.6 1014.6 0.0
24/09:30am 17.7 17.6 15.0 84 1.6 N 9 17 5 9 1014.6 1014.6 0.0
24/09:00am 16.2 15.7 13.7 85 1.4 NNE 9 13 5 7 1014.9 1014.9 0.6
24/08:30am 15.2 16.0 13.7 91 0.8 ESE 2 6 1 3 1015.1 1015.1 0.6
24/08:00am 13.6 14.3 13.3 98 0.2 WSW 2 6 1 3 1015.0 1015.0 0.6
24/07:30am 12.8 11.9 12.6 99 0.1 N 9 13 5 7 1015.2 1015.2 0.6
24/07:00am 11.9 11.1 11.6 98 0.2 NNE 7 11 4 6 1015.1 1015.1 0.6
24/06:30am 11.7 11.8 11.4 98 0.2 N 2 7 1 4 1015.1 1015.1 0.6
24/06:00am 12.3 11.2 12.0 98 0.2 NNW 9 15 5 8 1014.9 1014.9 0.6
24/05:30am 12.2 11.1 11.9 98 0.2 NNW 9 11 5 6 1014.9 1014.9 0.6
24/05:00am 12.7 12.3 12.4 98 0.2 NW 6 13 3 7 1015.0 1015.0 0.6
24/04:30am 12.5 10.7 12.2 98 0.2 SSW 13 17 7 9 1015.1 1015.1 0.0
24/04:00am 11.1 9.7 10.8 98 0.2 S 9 28 5 15 1015.3 1015.3 0.0
24/03:30am 11.0 9.9 10.7 98 0.2 NNW 7 9 4 5 1014.5 1014.5 0.0
24/03:00am 11.1 11.4 10.8 98 0.2 CALM 0 0 0 0 1014.6 1014.6 0.0
24/02:30am 10.6 10.7 10.3 98 0.2 CALM 0 0 0 0 1015.1 1015.1 0.0
24/02:00am 11.4 11.8 11.2 99 0.1 CALM 0 0 0 0 1015.5 1015.5 0.0
24/01:30am 10.4 10.5 10.1 98 0.2 CALM 0 0 0 0 1015.3 1015.3 0.0
24/01:00am 10.3 10.0 10.0 98 0.2 WSW 2 7 1 4 1015.9 1015.9 0.0
24/12:31am 10.9 11.1 10.6 98 0.2 CALM 0 0 0 0 1016.1 1016.1 0.0
24/12:30am 11.2 11.5 10.9 98 0.2 CALM 0 0 0 0 1016.1 1016.1 0.0
24/12:13am 11.1 11.4 10.8 98 0.2 CALM 0 0 0 0 1016.3 1016.3 0.0
24/12:00am 11.1 11.4 10.8 98 0.2 CALM 0 0 0 0 1016.5 1016.5 0.0
 
Date/Time
EST
Temp
°C
App
Temp
°C
Dew
Point
°C
Rel
Hum
%
Delta-T
°C
Wind Press
QNH
hPa
Press
MSL
hPa
Rain since
9am
mm
Dir  Spd
km/h
Gust
km/h
Spd
kts
Gust
kts
23/11:30pm 11.0 10.5 10.7 98 0.2 SW 4 7 2 4 1016.7 1016.7 0.0
23/11:00pm 11.5 11.5 11.2 98 0.2 ENE 2 7 1 4 1017.0 1017.0 0.0
23/10:30pm 12.1 12.7 11.8 98 0.2 CALM 0 0 0 0 1017.2 1017.2 0.0
23/10:00pm 13.1 13.6 12.8 98 0.2 N 2 7 1 4 1017.3 1017.3 0.0
23/09:30pm 13.1 14.0 12.8 98 0.2 CALM 0 0 0 0 1017.5 1017.5 0.0
23/09:00pm 13.3 14.2 13.0 98 0.2 CALM 0 0 0 0 1017.4 1017.4 0.0
23/08:30pm 13.6 13.1 12.5 93 0.6 N 7 9 4 5 1017.3 1017.3 0.0
23/08:00pm 14.9 16.1 13.8 93 0.6 CALM 0 0 0 0 1017.1 1017.1 0.0
23/07:30pm 14.9 14.3 13.4 91 0.8 NNW 9 11 5 6 1017.4 1017.4 0.0
23/07:00pm 15.6 14.7 13.6 88 1.1 N 11 13 6 7 1017.5 1017.5 0.0
23/06:30pm 16.6 15.6 13.5 82 1.7 NNE 11 13 6 7 1017.0 1017.0 0.0
23/06:00pm 18.2 18.0 14.7 80 2.0 NE 9 11 5 6 1017.1 1017.1 0.0
23/05:30pm 18.2 17.6 14.5 79 2.1 ENE 11 15 6 8 1016.7 1016.7 0.0
23/05:00pm 18.8 18.5 14.3 75 2.6 NE 9 13 5 7 1016.9 1016.9 0.0
23/04:30pm 20.0 19.2 14.1 69 3.4 NNE 11 15 6 8 1016.8 1016.8 0.0
23/04:00pm 22.0 20.5 14.1 61 4.6 NE 15 19 8 10 1016.5 1016.5 0.0
23/03:30pm 22.8 21.2 13.8 57 5.2 NE 15 19 8 10 1016.7 1016.7 0.0
23/03:00pm 23.1 21.8 13.6 55 5.5 NNE 13 19 7 10 1016.7 1016.7 0.0
23/02:30pm 23.7 23.0 14.4 56 5.5 NE 11 15 6 8 1017.0 1017.0 0.0
23/02:00pm 23.3 21.9 13.5 54 5.7 NE 13 19 7 10 1017.3 1017.3 0.0
23/01:30pm 23.0 22.8 14.8 60 4.9 NE 9 17 5 9 1017.6 1017.6 0.0
23/01:00pm 22.8 21.8 14.6 60 4.8 NE 13 19 7 10 1017.8 1017.8 0.0
23/12:30pm 22.3 21.2 14.2 60 4.7 NE 13 20 7 11 1018.6 1018.6 0.0
23/12:00pm 22.1 21.7 15.2 65 4.1 NNE 11 19 6 10 1019.2 1019.2 0.0
23/11:30am 21.0 21.1 16.4 75 2.8 ENE 11 15 6 8 1019.8 1019.8 0.0
23/11:00am 19.1 19.6 16.5 85 1.6 E 9 13 5 7 1020.5 1020.5 0.0
23/10:30am 17.7 18.6 16.6 93 0.7 E 7 11 4 6 1021.1 1021.1 0.0
23/10:00am 16.9 18.1 15.9 94 0.6 E 4 7 2 4 1021.6 1021.6 0.0
23/09:47am 16.5 17.4 16.0 97 0.3 ENE 6 9 3 5 1021.8 1021.8 0.0
23/09:43am 16.6 18.3 16.3 98 0.2 E 2 9 1 5 1021.8 1021.8 0.0
23/09:30am 15.6 17.4 15.4 99 0.1 CALM 0 0 0 0 1021.9 1021.9 0.0
23/09:00am 14.4 15.7 14.2 99 0.1 CALM 0 0 0 0 1022.3 1022.3 0.2
23/08:30am 14.3 15.6 14.1 99 0.1 CALM 0 0 0 0 1022.4 1022.4 0.2
23/08:00am 14.0 15.2 13.8 99 0.1 CALM 0 0 0 0 1022.4 1022.4 0.2
23/07:40am 13.7 14.8 13.5 99 0.1 CALM 0 0 0 0 1022.1 1022.1 0.2
23/07:30am 13.6 14.7 13.4 99 0.1 CALM 0 0 0 0 1022.0 1022.0 0.2
23/07:00am 13.0 13.9 12.8 99 0.1 CALM 0 0 0 0 1021.9 1021.9 0.2
23/06:30am 12.9 13.7 12.7 99 0.1 CALM 0 0 0 0 1021.6 1021.6 0.2
23/06:00am 13.9 15.1 13.7 99 0.1 CALM 0 0 0 0 1021.5 1021.5 0.2
23/05:42am 14.1 15.3 13.9 99 0.1 CALM 0 0 0 0 1021.5 1021.5 0.2
23/05:41am 14.1 15.3 13.9 99 0.1 CALM 0 0 0 0 1021.5 1021.5 0.2
23/05:30am 14.1 15.3 13.9 99 0.1 CALM 0 0 0 0 1021.2 1021.2 0.2
23/05:00am 13.8 14.9 13.6 99 0.1 CALM 0 0 0 0 1021.1 1021.1 0.2
23/04:30am 13.5 14.5 13.3 99 0.1 CALM 0 0 0 0 1021.1 1021.1 0.2
23/04:00am 13.8 14.6 13.6 99 0.1 WNW 2 6 1 3 1021.2 1021.2 0.2
23/03:30am 14.0 15.2 13.8 99 0.1 CALM 0 0 0 0 1021.4 1021.4 0.2
23/03:00am 13.8 14.9 13.6 99 0.1 CALM 0 0 0 0 1021.5 1021.5 0.2
23/02:30am 13.8 14.9 13.6 99 0.1 CALM 0 0 0 0 1021.7 1021.7 0.2
23/02:25am 13.7 14.8 13.5 99 0.1 CALM 0 0 0 0 1021.7 1021.7 0.2
23/02:07am 14.0 15.2 13.8 99 0.1 CALM 0 0 0 0 1021.7 1021.7 0.2
23/02:00am 14.0 15.2 13.8 99 0.1 CALM 0 0 0 0 1021.7 1021.7 0.2
23/01:50am 14.0 15.2 13.8 99 0.1 CALM 0 0 0 0 1021.9 1021.9 0.2
23/01:30am 14.1 15.3 13.9 99 0.1 CALM 0 0 0 0 1022.0 1022.0 0.2
23/01:00am 14.1 15.3 13.9 99 0.1 CALM 0 0 0 0 1022.3 1022.3 0.2
23/12:30am 14.0 15.2 13.8 99 0.1 CALM 0 0 0 0 1022.5 1022.5 0.2
23/12:17am 13.9 15.1 13.7 99 0.1 CALM 0 0 0 0 1022.7 1022.7 0.2
23/12:00am 13.9 15.1 13.7 99 0.1 CALM 0 0 0 0 1022.7 1022.7 0.2
 
Date/Time
EST
Temp
°C
App
Temp
°C
Dew
Point
°C
Rel
Hum
%
Delta-T
°C
Wind Press
QNH
hPa
Press
MSL
hPa
Rain since
9am
mm
Dir  Spd
km/h
Gust
km/h
Spd
kts
Gust
kts
22/11:39pm 13.8 14.9 13.6 99 0.1 CALM 0 0 0 0 1022.9 1022.9 0.2
22/11:30pm 14.0 15.2 13.8 99 0.1 CALM 0 0 0 0 1022.9 1022.9 0.2
22/11:00pm 14.4 15.7 14.2 99 0.1 CALM 0 0 0 0 1022.9 1022.9 0.2
22/10:30pm 14.6 16.0 14.4 99 0.1 CALM 0 0 0 0 1023.1 1023.1 0.2
22/10:00pm 14.3 14.8 14.1 99 0.1 WNW 4 11 2 6 1023.2 1023.2 0.2
22/09:30pm 14.4 15.7 14.2 99 0.1 CALM 0 0 0 0 1023.1 1023.1 0.2
22/09:00pm 14.2 15.5 14.0 99 0.1 CALM 0 0 0 0 1023.1 1023.1 0.2
22/08:30pm 13.9 15.0 13.6 98 0.2 CALM 0 0 0 0 1022.9 1022.9 0.2
22/08:00pm 14.7 15.9 13.7 94 0.6 CALM 0 0 0 0 1022.9 1022.9 0.2
22/07:30pm 15.3 16.7 14.3 94 0.6 CALM 0 0 0 0 1022.8 1022.8 0.2
22/07:00pm 16.2 17.6 14.4 89 1.0 CALM 0 0 0 0 1022.8 1022.8 0.2
22/06:30pm 17.1 17.9 14.7 86 1.4 NE 4 6 2 3 1022.6 1022.6 0.2
22/06:00pm 16.9 16.9 14.2 84 1.5 ENE 7 11 4 6 1022.2 1022.2 0.2
22/05:30pm 17.3 17.0 14.4 83 1.7 NE 9 13 5 7 1022.0 1022.0 0.2
22/05:00pm 18.1 19.2 14.6 80 2.0 NNE 2 7 1 4 1021.8 1021.8 0.2
22/04:30pm 19.2 20.5 14.2 73 2.9 CALM 0 0 0 0 1021.7 1021.7 0.2
22/04:00pm 20.2 20.2 14.1 68 3.5 NNE 7 9 4 5 1021.5 1021.5 0.2
22/03:30pm 20.2 21.1 13.9 67 3.6 NNE 2 7 1 4 1021.5 1021.5 0.2
22/03:00pm 20.5 20.0 13.7 65 3.9 NNE 9 15 5 8 1021.5 1021.5 0.2
22/02:30pm 20.4 19.5 13.6 65 3.9 NE 11 15 6 8 1021.7 1021.7 0.0
22/02:00pm 20.5 20.1 13.0 62 4.2 ENE 7 13 4 7 1022.0 1022.0 0.0
22/01:30pm 20.0 19.9 13.9 68 3.5 ENE 7 11 4 6 1022.1 1022.1 0.0
22/01:00pm 19.5 19.3 13.7 69 3.3 ENE 7 13 4 7 1022.4 1022.4 0.0
22/12:30pm 19.9 20.6 15.7 77 2.5 ENE 6 11 3 6 1022.7 1022.7 0.0
22/12:00pm 18.6 19.7 15.7 83 1.7 NE 4 9 2 5 1023.3 1023.3 0.0
22/11:30am 15.8 16.3 15.5 98 0.2 SE 7 11 4 6 1023.6 1023.6 0.0
22/11:29am 15.7 16.1 15.4 98 0.2 ESE 7 11 4 6 1023.6 1023.6 0.0

Latest Capital City Observations: Canberra | Sydney | Melbourne | Brisbane | Adelaide | Perth | Hobart | Darwin

Other Formats:

Comma delimited format used in spreadsheet applications
http://www.bom.gov.au/fwo/IDN60901/IDN60901.95753.axf

JavaScript Object Notation format (JSON) in row-major order
http://www.bom.gov.au/fwo/IDN60901/IDN60901.95753.json